New Harbour, Canada
Current Conditions -  °F | °C
As of 4:00 AM on Saturday 20 Dec 2014 (Local Time) from CYYT Reporting Station
Snow Showers Snow Showers  
Wind Chill: -5°   Ceiling: 800
Heat Index:   Visibility: 15mi
Dew Point: -1°   Wind: 13mph
Humidity: 93%   Direction: 360°N
Pressure: 29.91"   Gusts: NA
Location:  47.58°N, 53.55°W
Report Text: CYYT 200700Z 36011KT 15SM -SHSN OVC008 M00/M01 A2991 RMK SF8 SLP134
Loading
Personal Weather Stations






























Interactive Weather Map New forecast layout! Learn more

10-Day Weather Forecast

Advertisements
Track Severe Weather on mobile